createdAt,value
2023-02-11T00:02:46.834Z,0.15
2023-02-11T00:05:33.478Z,0.11
2023-02-11T00:08:19.253Z,0.11
2023-02-11T00:11:05.153Z,0.11
2023-02-11T00:13:50.570Z,0.10
2023-02-11T00:16:36.322Z,0.05
2023-02-11T00:19:21.975Z,-0.01
2023-02-11T00:22:08.437Z,-0.09
2023-02-11T00:24:54.505Z,-0.18
2023-02-11T00:27:40.065Z,-0.23
2023-02-11T00:30:26.224Z,-0.27
2023-02-11T00:33:12.325Z,-0.28
2023-02-11T00:35:57.929Z,-0.26
2023-02-11T00:38:44.978Z,-0.22
2023-02-11T00:41:31.531Z,-0.21
2023-02-11T00:44:17.817Z,-0.21
2023-02-11T00:47:06.680Z,-0.22
2023-02-11T00:49:52.771Z,-0.23
2023-02-11T00:52:38.588Z,-0.29
2023-02-11T00:55:24.241Z,-0.40
2023-02-11T00:58:10.097Z,-0.46
2023-02-11T01:00:56.178Z,-0.51
2023-02-11T01:03:43.211Z,-0.52
2023-02-11T01:06:28.981Z,-0.54
2023-02-11T01:09:14.437Z,-0.59
2023-02-11T01:12:00.101Z,-0.65
2023-02-11T01:14:45.889Z,-0.66
2023-02-11T01:17:31.439Z,-0.68
2023-02-11T01:20:23.185Z,-0.69
2023-02-11T01:23:08.796Z,-0.66
2023-02-11T01:25:55.283Z,-0.55
2023-02-11T01:28:41.435Z,-0.44
2023-02-11T01:31:27.668Z,-0.43
2023-02-11T01:34:12.943Z,-0.45
2023-02-11T01:36:59.551Z,-0.46
2023-02-11T01:39:47.692Z,-0.44
2023-02-11T01:42:33.852Z,-0.41
2023-02-11T01:45:50.225Z,-0.41
2023-02-11T01:48:41.354Z,-0.43
2023-02-11T01:51:41.750Z,-0.44
2023-02-11T01:54:53.613Z,-0.38
2023-02-11T01:57:43.602Z,-0.30
2023-02-11T02:00:38.981Z,-0.30
2023-02-11T02:03:24.959Z,-0.31
2023-02-11T02:06:19.643Z,-0.33
2023-02-11T02:09:10.041Z,-0.33
2023-02-11T02:11:56.307Z,-0.27
2023-02-11T02:14:44.135Z,-0.28
2023-02-11T02:17:43.820Z,-0.35
2023-02-11T02:21:06.298Z,-0.42
2023-02-11T02:24:16.579Z,-0.55
2023-02-11T02:27:30.295Z,-0.67
2023-02-11T02:30:28.161Z,-0.74
2023-02-11T02:33:32.654Z,-0.80
2023-02-11T02:36:28.413Z,-0.86
2023-02-11T02:39:36.119Z,-0.92
2023-02-11T02:42:22.828Z,-0.94
2023-02-11T02:45:10.997Z,-0.76
2023-02-11T02:47:56.976Z,-0.65
2023-02-11T02:50:43.439Z,-0.53
2023-02-11T02:53:50.247Z,-0.45
2023-02-11T02:57:03.637Z,-0.36
2023-02-11T03:00:15.153Z,-0.30
2023-02-11T03:03:13.063Z,-0.23
2023-02-11T03:06:09.716Z,-0.18
2023-02-11T03:09:11.081Z,-0.14
2023-02-11T03:11:57.271Z,-0.12
2023-02-11T03:14:46.645Z,-0.07
2023-02-11T03:17:35.632Z,-0.03
2023-02-11T03:20:23.396Z,-0.02
2023-02-11T03:23:17.200Z,-0.02
2023-02-11T03:26:11.761Z,-0.01
2023-02-11T03:29:15.612Z,-0.01
2023-02-11T03:32:23.162Z,0.01
2023-02-11T03:35:17.347Z,0.04
2023-02-11T03:38:43.093Z,0.06
2023-02-11T03:41:31.590Z,0.08
2023-02-11T03:44:17.344Z,0.11
2023-02-11T03:47:05.201Z,0.16
2023-02-11T03:49:53.904Z,0.19
2023-02-11T03:52:40.308Z,0.21
2023-02-11T03:55:28.350Z,0.20
2023-02-11T03:58:13.938Z,0.19
2023-02-11T04:01:00.275Z,0.18
2023-02-11T04:03:45.868Z,0.17
2023-02-11T04:06:31.541Z,0.15
2023-02-11T04:09:17.376Z,0.15
2023-02-11T04:12:03.472Z,0.15
2023-02-11T04:14:49.518Z,0.14
2023-02-11T04:17:35.550Z,0.15
2023-02-11T04:20:21.507Z,0.13
2023-02-11T04:23:07.748Z,0.13
2023-02-11T04:25:53.307Z,0.13
2023-02-11T04:28:39.602Z,0.14
2023-02-11T04:31:25.781Z,0.14
2023-02-11T04:34:11.569Z,0.20
2023-02-11T04:36:57.416Z,0.23
2023-02-11T04:39:43.166Z,0.25
2023-02-11T04:42:29.012Z,0.27
2023-02-11T04:45:14.810Z,0.27
2023-02-11T04:48:02.503Z,0.27
2023-02-11T04:50:48.261Z,0.28
2023-02-11T04:53:33.903Z,0.30
2023-02-11T04:56:19.233Z,0.27
2023-02-11T04:59:06.217Z,0.26
2023-02-11T05:01:51.755Z,0.25
2023-02-11T05:04:37.592Z,0.20
2023-02-11T05:07:23.127Z,0.23
2023-02-11T05:10:09.205Z,0.25
2023-02-11T05:12:56.096Z,0.25
2023-02-11T05:15:41.605Z,0.21
2023-02-11T05:18:27.297Z,0.17
2023-02-11T05:21:16.661Z,0.21
2023-02-11T05:24:04.182Z,0.25
2023-02-11T05:26:50.075Z,0.36
2023-02-11T05:29:35.781Z,0.45
2023-02-11T05:32:21.924Z,0.52
2023-02-11T05:35:08.720Z,0.57
2023-02-11T05:37:54.643Z,0.59
2023-02-11T05:40:40.560Z,0.60
2023-02-11T05:43:26.199Z,0.63
2023-02-11T05:46:11.808Z,0.67
2023-02-11T05:48:57.624Z,0.66
2023-02-11T05:51:43.478Z,0.68
2023-02-11T05:54:29.239Z,0.69
2023-02-11T05:57:15.400Z,0.71
2023-02-11T06:00:00.649Z,0.72
2023-02-11T06:02:46.272Z,0.74
2023-02-11T06:05:32.726Z,0.76
2023-02-11T06:08:18.942Z,0.79
2023-02-11T06:11:08.135Z,0.80
2023-02-11T06:13:53.743Z,0.80
2023-02-11T06:16:39.556Z,0.80
2023-02-11T06:19:24.794Z,0.83
2023-02-11T06:22:10.609Z,0.87
2023-02-11T06:25:01.735Z,0.90
2023-02-11T06:27:47.876Z,0.92
2023-02-11T06:30:33.460Z,0.95
2023-02-11T06:33:19.101Z,1.00
2023-02-11T06:36:12.213Z,1.04
2023-02-11T06:38:58.117Z,1.10
2023-02-11T06:41:43.903Z,1.14
2023-02-11T06:44:29.622Z,1.19
2023-02-11T06:47:15.348Z,1.24
2023-02-11T06:50:00.835Z,1.28
2023-02-11T06:52:46.256Z,1.32
2023-02-11T06:55:32.070Z,1.34
2023-02-11T06:58:17.540Z,1.34
2023-02-11T07:01:12.713Z,1.35
2023-02-11T07:03:58.631Z,1.37
2023-02-11T07:06:44.053Z,1.40
2023-02-11T07:09:29.805Z,1.41
2023-02-11T07:12:15.260Z,1.45
2023-02-11T07:15:00.750Z,1.46
2023-02-11T07:17:46.361Z,1.47
2023-02-11T07:20:32.235Z,1.49
2023-02-11T07:23:17.840Z,1.52
2023-02-11T07:26:10.583Z,1.54
2023-02-11T07:28:56.762Z,1.55
2023-02-11T07:31:42.591Z,1.58
2023-02-11T07:34:28.428Z,1.59
2023-02-11T07:37:14.193Z,1.60
2023-02-11T07:39:59.917Z,1.63
2023-02-11T07:42:45.711Z,1.63
2023-02-11T07:45:31.433Z,1.65
2023-02-11T07:48:17.026Z,1.67
2023-02-11T07:51:23.172Z,1.69
2023-02-11T07:54:10.646Z,1.74
2023-02-11T07:56:56.232Z,1.76
2023-02-11T07:59:41.715Z,1.79
2023-02-11T08:02:27.259Z,1.82
2023-02-11T08:05:13.059Z,1.86
2023-02-11T08:07:58.799Z,1.89
2023-02-11T08:10:44.373Z,1.91
2023-02-11T08:13:30.055Z,1.96
2023-02-11T08:16:25.423Z,1.96
2023-02-11T08:19:14.516Z,1.99
2023-02-11T08:22:01.351Z,2.01
2023-02-11T08:24:46.933Z,2.01
2023-02-11T08:27:33.006Z,2.04
2023-02-11T08:30:18.788Z,2.08
2023-02-11T08:33:04.286Z,2.10
2023-02-11T08:35:50.034Z,2.12
2023-02-11T08:38:35.780Z,2.12
2023-02-11T08:41:21.013Z,2.13
2023-02-11T08:44:06.699Z,2.14
2023-02-11T08:46:52.695Z,2.15
2023-02-11T08:49:38.578Z,2.16
2023-02-11T08:52:24.523Z,2.19
2023-02-11T08:55:11.158Z,2.20
2023-02-11T08:57:57.359Z,2.22
2023-02-11T09:00:46.136Z,2.24
2023-02-11T09:03:34.908Z,2.26
2023-02-11T09:06:22.877Z,2.23
2023-02-11T09:09:13.722Z,2.20
2023-02-11T09:12:01.233Z,2.17
2023-02-11T09:14:48.103Z,2.15
2023-02-11T09:17:34.015Z,2.15
2023-02-11T09:20:19.784Z,2.12
2023-02-11T09:23:05.873Z,2.11
2023-02-11T09:26:09.798Z,2.12
2023-02-11T09:28:56.026Z,2.09
2023-02-11T09:31:42.165Z,2.05
2023-02-11T09:34:27.893Z,2.04
2023-02-11T09:37:13.440Z,2.07
2023-02-11T09:39:59.347Z,2.12
2023-02-11T09:43:01.735Z,2.18
2023-02-11T09:45:50.173Z,2.24
2023-02-11T09:48:42.082Z,2.31
2023-02-11T09:51:43.295Z,2.34
2023-02-11T09:54:36.498Z,2.38
2023-02-11T09:57:29.028Z,2.42
2023-02-11T10:00:29.410Z,2.45
2023-02-11T10:04:05.838Z,2.50
2023-02-11T10:07:07.766Z,2.55
2023-02-11T10:10:04.956Z,2.56
2023-02-11T10:13:23.359Z,2.58
2023-02-11T10:16:49.901Z,2.56
2023-02-11T10:20:00.447Z,2.58
2023-02-11T10:22:50.282Z,2.63
2023-02-11T10:25:45.437Z,2.66
2023-02-11T10:28:34.479Z,2.72
2023-02-11T10:31:28.808Z,2.74
2023-02-11T10:34:15.223Z,2.78
2023-02-11T10:37:01.234Z,2.81
2023-02-11T10:39:49.823Z,2.83
2023-02-11T10:42:36.217Z,2.81
2023-02-11T10:45:27.261Z,2.79
2023-02-11T10:48:37.493Z,2.77
2023-02-11T10:51:28.784Z,2.77
2023-02-11T10:54:24.588Z,2.78
2023-02-11T10:57:20.074Z,2.76
2023-02-11T11:00:27.505Z,2.75
2023-02-11T11:03:22.926Z,2.72
2023-02-11T11:06:09.853Z,2.69
2023-02-11T11:08:55.464Z,2.69
2023-02-11T11:11:53.858Z,2.67
2023-02-11T11:14:39.284Z,2.68
2023-02-11T11:17:29.372Z,2.67
2023-02-11T11:20:14.855Z,2.68
2023-02-11T11:23:17.495Z,2.70
2023-02-11T11:26:09.997Z,2.75
2023-02-11T11:29:09.724Z,2.75
2023-02-11T11:31:59.537Z,2.73
2023-02-11T11:34:52.843Z,2.69
2023-02-11T11:37:39.562Z,2.68
2023-02-11T11:40:31.185Z,2.69
2023-02-11T11:43:23.044Z,2.69
2023-02-11T11:46:12.426Z,2.70
2023-02-11T11:49:18.145Z,2.72
2023-02-11T11:52:41.650Z,2.75
2023-02-11T11:55:35.598Z,2.76
2023-02-11T11:58:23.322Z,2.85
2023-02-11T12:01:27.476Z,2.96
2023-02-11T12:04:40.068Z,3.04
2023-02-11T12:07:28.435Z,3.09
2023-02-11T12:10:35.393Z,3.12
2023-02-11T12:13:38.834Z,3.16
2023-02-11T12:16:27.391Z,3.20
2023-02-11T12:19:22.322Z,3.23
2023-02-11T12:22:12.874Z,3.25
2023-02-11T12:25:07.823Z,3.20
2023-02-11T12:28:07.773Z,3.21
2023-02-11T12:31:13.403Z,3.26
2023-02-11T12:34:15.816Z,3.30
2023-02-11T12:37:23.035Z,3.27
2023-02-11T12:40:28.747Z,3.24
2023-02-11T12:43:24.056Z,3.25
2023-02-11T12:46:30.814Z,3.26
2023-02-11T12:49:30.109Z,3.26
2023-02-11T12:52:38.787Z,3.27
2023-02-11T12:55:26.077Z,3.28
2023-02-11T12:58:35.615Z,3.29
2023-02-11T13:01:39.482Z,3.29
2023-02-11T13:04:54.190Z,3.33
2023-02-11T13:07:45.320Z,3.35
2023-02-11T13:10:38.735Z,3.35
2023-02-11T13:13:24.476Z,3.35
2023-02-11T13:16:24.054Z,3.37
2023-02-11T13:19:12.811Z,3.38
2023-02-11T13:22:17.376Z,3.47
2023-02-11T13:25:50.555Z,3.55
2023-02-11T13:28:50.540Z,3.61
2023-02-11T13:31:36.374Z,3.67
2023-02-11T13:34:46.210Z,3.70
2023-02-11T13:37:38.921Z,3.71
2023-02-11T13:40:27.572Z,3.65
2023-02-11T13:43:23.597Z,3.65
2023-02-11T13:46:13.401Z,3.64
2023-02-11T13:48:59.659Z,3.63
2023-02-11T13:51:45.665Z,3.62
2023-02-11T13:54:36.008Z,3.57
2023-02-11T13:57:23.477Z,3.54
2023-02-11T14:00:33.937Z,3.50
2023-02-11T14:03:47.004Z,3.49
2023-02-11T14:06:51.291Z,3.45
2023-02-11T14:09:40.267Z,3.41
2023-02-11T14:12:33.479Z,3.36
2023-02-11T14:15:22.122Z,3.33
2023-02-11T14:18:47.220Z,3.30
2023-02-11T14:21:37.001Z,3.30
2023-02-11T14:24:25.861Z,3.29
2023-02-11T14:27:16.302Z,3.29
2023-02-11T14:30:07.790Z,3.30
2023-02-11T14:33:18.221Z,3.30
2023-02-11T14:36:27.128Z,3.32
2023-02-11T14:40:02.690Z,3.34
2023-02-11T14:42:48.553Z,3.34
2023-02-11T14:45:37.042Z,3.33
2023-02-11T14:48:37.004Z,3.33
2023-02-11T14:51:31.681Z,3.35
2023-02-11T14:54:25.382Z,3.36
2023-02-11T14:57:17.015Z,3.36
2023-02-11T15:00:13.879Z,3.35
2023-02-11T15:02:59.788Z,3.32
2023-02-11T15:05:45.768Z,3.33
2023-02-11T15:08:33.557Z,3.32
2023-02-11T15:11:22.539Z,3.31
2023-02-11T15:14:16.778Z,3.30
2023-02-11T15:17:09.084Z,3.27
2023-02-11T15:19:58.835Z,3.28
2023-02-11T15:22:46.704Z,3.26
2023-02-11T15:25:34.156Z,3.26
2023-02-11T15:28:29.395Z,3.24
2023-02-11T15:31:17.423Z,3.24
2023-02-11T15:34:08.132Z,3.22
2023-02-11T15:36:54.394Z,3.23
2023-02-11T15:39:42.568Z,3.21
2023-02-11T15:42:35.814Z,3.20
2023-02-11T15:45:29.668Z,3.21
2023-02-11T15:48:37.338Z,3.21
2023-02-11T15:51:29.089Z,3.19
2023-02-11T15:54:21.324Z,3.18
2023-02-11T15:57:10.472Z,3.18
2023-02-11T15:59:56.988Z,3.18
2023-02-11T16:02:46.696Z,3.16
2023-02-11T16:05:37.961Z,3.13
2023-02-11T16:08:29.937Z,3.09
2023-02-11T16:11:25.300Z,3.05
2023-02-11T16:14:37.228Z,3.02
2023-02-11T16:17:27.895Z,3.00
2023-02-11T16:20:20.338Z,2.97
2023-02-11T16:23:07.960Z,2.95
2023-02-11T16:26:22.352Z,2.93
2023-02-11T16:29:22.436Z,2.94
2023-02-11T16:32:13.903Z,2.93
2023-02-11T16:35:01.513Z,2.92
2023-02-11T16:37:47.391Z,2.93
2023-02-11T16:40:33.584Z,2.93
2023-02-11T16:43:20.207Z,2.93
2023-02-11T16:46:06.077Z,2.93
2023-02-11T16:48:51.271Z,2.93
2023-02-11T16:51:39.994Z,2.93
2023-02-11T16:54:25.797Z,2.93
2023-02-11T16:57:20.339Z,2.92
2023-02-11T17:00:07.580Z,2.92
2023-02-11T17:02:53.021Z,2.93
2023-02-11T17:05:54.432Z,2.92
2023-02-11T17:08:41.925Z,2.94
2023-02-11T17:11:27.378Z,2.95
2023-02-11T17:14:13.068Z,2.96
2023-02-11T17:16:59.188Z,2.98
2023-02-11T17:19:45.300Z,2.98
2023-02-11T17:22:31.110Z,3.02
2023-02-11T17:25:17.441Z,3.02
2023-02-11T17:28:04.649Z,3.03
2023-02-11T17:30:50.515Z,3.04
2023-02-11T17:33:37.836Z,3.08
2023-02-11T17:36:23.535Z,3.08
2023-02-11T17:39:09.503Z,3.09
2023-02-11T17:41:55.180Z,3.08
2023-02-11T17:44:41.054Z,3.07
2023-02-11T17:47:26.797Z,3.07
2023-02-11T17:50:12.595Z,3.08
2023-02-11T17:52:58.255Z,3.08
2023-02-11T17:55:43.802Z,3.08
2023-02-11T17:58:29.676Z,3.09
2023-02-11T18:01:15.571Z,3.08
2023-02-11T18:04:01.828Z,3.07
2023-02-11T18:06:47.544Z,3.06
2023-02-11T18:09:38.266Z,3.07
2023-02-11T18:12:27.478Z,3.05
2023-02-11T18:15:13.414Z,3.02
2023-02-11T18:17:58.953Z,3.01
2023-02-11T18:20:46.921Z,3.00
2023-02-11T18:23:32.765Z,3.00
2023-02-11T18:26:20.761Z,2.99
2023-02-11T18:29:07.120Z,2.99
2023-02-11T18:31:55.661Z,3.00
2023-02-11T18:34:41.921Z,3.00
2023-02-11T18:37:27.609Z,3.00
2023-02-11T18:40:15.369Z,2.99
2023-02-11T18:43:01.062Z,3.01
2023-02-11T18:45:48.666Z,3.02
2023-02-11T18:48:34.642Z,3.02
2023-02-11T18:51:20.083Z,3.01
2023-02-11T18:54:05.968Z,3.02
2023-02-11T18:56:51.392Z,3.02
2023-02-11T18:59:37.150Z,3.03
2023-02-11T19:02:25.021Z,3.03
2023-02-11T19:05:11.533Z,3.04
2023-02-11T19:07:57.442Z,3.05
2023-02-11T19:10:45.474Z,3.07
2023-02-11T19:13:31.621Z,3.09
2023-02-11T19:16:20.042Z,3.12
2023-02-11T19:19:06.154Z,3.13
2023-02-11T19:21:52.164Z,3.15
2023-02-11T19:24:38.743Z,3.15
2023-02-11T19:27:24.664Z,3.15
2023-02-11T19:30:11.046Z,3.17
2023-02-11T19:32:57.961Z,3.17
2023-02-11T19:35:43.796Z,3.19
2023-02-11T19:38:29.812Z,3.21
2023-02-11T19:41:22.529Z,3.23
2023-02-11T19:44:09.670Z,3.25
2023-02-11T19:46:55.766Z,3.29
2023-02-11T19:49:41.427Z,3.32
2023-02-11T19:52:27.436Z,3.34
2023-02-11T19:55:13.417Z,3.36
2023-02-11T19:57:59.383Z,3.39
2023-02-11T20:00:44.871Z,3.43
2023-02-11T20:03:30.461Z,3.45
2023-02-11T20:06:19.037Z,3.46
2023-02-11T20:09:07.940Z,3.49
2023-02-11T20:11:53.355Z,3.53
2023-02-11T20:14:38.639Z,3.56
2023-02-11T20:17:25.669Z,3.60
2023-02-11T20:20:12.923Z,3.62
2023-02-11T20:22:58.880Z,3.65
2023-02-11T20:25:44.233Z,3.64
2023-02-11T20:28:29.843Z,3.65
2023-02-11T20:31:16.430Z,3.65
2023-02-11T20:34:02.307Z,3.66
2023-02-11T20:36:54.406Z,3.65
2023-02-11T20:39:42.021Z,3.65
2023-02-11T20:42:28.061Z,3.63
2023-02-11T20:45:14.128Z,3.62
2023-02-11T20:47:59.814Z,3.62
2023-02-11T20:50:48.209Z,3.61
2023-02-11T20:53:39.048Z,3.61
2023-02-11T20:56:28.973Z,3.61
2023-02-11T20:59:14.922Z,3.60
2023-02-11T21:02:01.702Z,3.58
2023-02-11T21:04:47.285Z,3.57
2023-02-11T21:07:32.930Z,3.57
2023-02-11T21:10:19.049Z,3.56
2023-02-11T21:13:04.902Z,3.55
2023-02-11T21:15:57.091Z,3.53
2023-02-11T21:18:44.119Z,3.51
2023-02-11T21:21:30.421Z,3.47
2023-02-11T21:24:15.890Z,3.46
2023-02-11T21:27:02.082Z,3.46
2023-02-11T21:29:54.105Z,3.45
2023-02-11T21:32:40.897Z,3.43
2023-02-11T21:35:26.646Z,3.43
2023-02-11T21:38:12.565Z,3.43
2023-02-11T21:41:04.283Z,3.43
2023-02-11T21:43:50.992Z,3.43
2023-02-11T21:46:36.813Z,3.42
2023-02-11T21:49:22.508Z,3.40
2023-02-11T21:52:07.907Z,3.37
2023-02-11T21:54:53.417Z,3.36
2023-02-11T21:57:40.357Z,3.35
2023-02-11T22:00:26.128Z,3.34
2023-02-11T22:03:12.555Z,3.36
2023-02-11T22:05:58.170Z,3.36
2023-02-11T22:08:43.976Z,3.36
2023-02-11T22:11:29.539Z,3.37
2023-02-11T22:14:15.398Z,3.36
2023-02-11T22:17:01.651Z,3.37
2023-02-11T22:19:47.125Z,3.36
2023-02-11T22:22:32.645Z,3.35
2023-02-11T22:25:18.638Z,3.34
2023-02-11T22:28:04.364Z,3.34
2023-02-11T22:30:57.211Z,3.35
2023-02-11T22:33:43.208Z,3.34
2023-02-11T22:36:40.803Z,3.33
2023-02-11T22:39:26.880Z,3.33
2023-02-11T22:42:12.426Z,3.31
2023-02-11T22:44:57.861Z,3.32
2023-02-11T22:47:43.625Z,3.33
2023-02-11T22:50:29.278Z,3.34
2023-02-11T22:53:14.939Z,3.35
2023-02-11T22:56:05.937Z,3.38
2023-02-11T22:58:52.400Z,3.42
2023-02-11T23:01:37.876Z,3.44
2023-02-11T23:04:23.548Z,3.45
2023-02-11T23:07:09.487Z,3.47
2023-02-11T23:09:55.471Z,3.48
2023-02-11T23:12:41.180Z,3.50
2023-02-11T23:15:27.057Z,3.52
2023-02-11T23:18:13.579Z,3.53
2023-02-11T23:21:06.901Z,3.55
2023-02-11T23:23:57.739Z,3.56
2023-02-11T23:26:44.353Z,3.56
2023-02-11T23:29:29.852Z,3.53
2023-02-11T23:32:15.634Z,3.53
2023-02-11T23:35:00.946Z,3.52
2023-02-11T23:37:46.515Z,3.50
2023-02-11T23:40:32.705Z,3.50
2023-02-11T23:43:18.240Z,3.51
2023-02-11T23:46:04.435Z,3.51
2023-02-11T23:48:50.988Z,3.50
2023-02-11T23:51:36.471Z,3.50
2023-02-11T23:54:22.252Z,3.50
2023-02-11T23:57:08.038Z,3.47
2023-02-11T23:59:53.510Z,3.45
